createdAt,value
2023-04-18T00:00:24.873Z,97092.72
2023-04-18T00:02:53.964Z,97083.47
2023-04-18T00:05:23.624Z,97083.84
2023-04-18T00:07:53.424Z,97080.34
2023-04-18T00:10:20.050Z,97077.28
2023-04-18T00:12:47.242Z,97079.19
2023-04-18T00:15:14.150Z,97071.88
2023-04-18T00:17:43.555Z,97071.88
2023-04-18T00:20:11.336Z,97068.00
2023-04-18T00:22:42.843Z,97063.75
2023-04-18T00:25:12.227Z,97067.16
2023-04-18T00:27:39.723Z,97065.63
2023-04-18T00:30:09.308Z,97067.59
2023-04-18T00:32:36.036Z,97065.66
2023-04-18T00:35:05.951Z,97064.06
2023-04-18T00:37:32.517Z,97051.72
2023-04-18T00:40:05.641Z,97054.44
2023-04-18T00:42:33.558Z,97054.41
2023-04-18T00:45:00.187Z,97052.53
2023-04-18T00:47:26.893Z,97056.41
2023-04-18T00:49:56.693Z,97059.50
2023-04-18T00:52:27.262Z,97059.44
2023-04-18T00:54:58.642Z,97047.91
2023-04-18T00:57:25.207Z,97045.22
2023-04-18T00:59:58.048Z,97047.91
2023-04-18T01:02:26.447Z,97043.28
2023-04-18T01:04:53.196Z,97044.44
2023-04-18T01:07:19.734Z,97044.44
2023-04-18T01:09:47.052Z,97044.03
2023-04-18T01:12:13.634Z,97032.47
2023-04-18T01:14:45.698Z,97037.06
2023-04-18T01:17:14.441Z,97040.19
2023-04-18T01:19:44.492Z,97037.06
2023-04-18T01:22:16.264Z,97035.88
2023-04-18T01:24:42.894Z,97040.97
2023-04-18T01:27:14.531Z,97029.34
2023-04-18T01:29:41.110Z,97030.78
2023-04-18T01:32:10.271Z,97038.22
2023-04-18T01:34:36.908Z,97020.91
2023-04-18T01:37:03.524Z,97025.47
2023-04-18T01:39:32.385Z,97017.41
2023-04-18T01:41:59.002Z,97017.38
2023-04-18T01:44:25.907Z,97023.53
2023-04-18T01:46:52.470Z,97009.25
2023-04-18T01:49:19.061Z,97026.63
2023-04-18T01:51:48.083Z,97014.66
2023-04-18T01:54:15.213Z,97008.09
2023-04-18T01:56:46.582Z,97011.94
2023-04-18T01:59:13.107Z,97016.94
2023-04-18T02:01:44.940Z,97013.13
2023-04-18T02:04:14.333Z,97005.78
2023-04-18T02:06:43.116Z,97007.00
2023-04-18T02:09:09.650Z,97005.78
2023-04-18T02:11:38.441Z,97001.94
2023-04-18T02:14:05.033Z,97001.16
2023-04-18T02:16:31.644Z,96999.97
2023-04-18T02:18:58.201Z,97003.16
2023-04-18T02:21:27.084Z,96996.53
2023-04-18T02:23:55.847Z,97003.09
2023-04-18T02:26:25.123Z,97002.69
2023-04-18T02:28:53.901Z,96996.19
2023-04-18T02:31:20.551Z,97000.38
2023-04-18T02:33:50.187Z,96999.97
2023-04-18T02:36:16.729Z,97004.22
2023-04-18T02:38:45.790Z,96999.59
2023-04-18T02:41:18.104Z,96999.59
2023-04-18T02:43:44.712Z,97001.16
2023-04-18T02:46:11.619Z,96994.97
2023-04-18T02:48:38.272Z,97003.88
2023-04-18T02:51:06.039Z,97005.78
2023-04-18T02:53:32.864Z,96993.41
2023-04-18T02:56:02.566Z,96996.91
2023-04-18T02:58:34.769Z,96991.50
2023-04-18T03:01:01.318Z,96996.50
2023-04-18T03:03:30.935Z,96996.88
2023-04-18T03:06:00.553Z,97003.84
2023-04-18T03:08:29.466Z,96999.59
2023-04-18T03:10:58.496Z,96995.34
2023-04-18T03:13:25.418Z,96984.94
2023-04-18T03:15:52.305Z,96998.03
2023-04-18T03:18:20.941Z,96990.31
2023-04-18T03:20:49.895Z,96995.34
2023-04-18T03:23:16.508Z,96989.59
2023-04-18T03:25:43.072Z,96988.41
2023-04-18T03:28:09.633Z,96983.00
2023-04-18T03:30:39.170Z,96982.97
2023-04-18T03:33:08.651Z,96987.22
2023-04-18T03:35:35.198Z,96982.63
2023-04-18T03:38:01.796Z,96979.13
2023-04-18T03:40:30.621Z,96972.16
2023-04-18T03:43:00.504Z,96979.88
2023-04-18T03:45:27.115Z,96977.97
2023-04-18T03:47:53.767Z,96979.13
2023-04-18T03:50:20.573Z,96976.03
2023-04-18T03:52:47.161Z,96971.00
2023-04-18T03:55:16.113Z,96979.13
2023-04-18T03:57:44.908Z,96971.41
2023-04-18T04:00:12.412Z,96971.03
2023-04-18T04:02:39.472Z,96970.72
2023-04-18T04:05:09.030Z,96978.44
2023-04-18T04:07:38.161Z,96970.28
2023-04-18T04:10:07.238Z,96967.19
2023-04-18T04:12:36.200Z,96969.16
2023-04-18T04:15:02.810Z,96973.78
2023-04-18T04:17:31.881Z,96975.69
2023-04-18T04:19:58.408Z,96967.63
2023-04-18T04:22:27.338Z,96978.81
2023-04-18T04:24:57.823Z,96976.81
2023-04-18T04:27:25.127Z,96973.72
2023-04-18T04:29:52.339Z,96968.34
2023-04-18T04:32:20.409Z,96974.13
2023-04-18T04:34:51.899Z,96974.50
2023-04-18T04:37:21.450Z,96980.66
2023-04-18T04:39:52.869Z,96973.72
2023-04-18T04:42:25.116Z,96972.94
2023-04-18T04:44:53.664Z,96979.53
2023-04-18T04:47:20.615Z,96981.44
2023-04-18T04:49:47.180Z,96979.88
2023-04-18T04:52:13.729Z,96986.84
2023-04-18T04:54:44.910Z,96980.59
2023-04-18T04:57:16.341Z,96985.72
2023-04-18T04:59:42.896Z,96988.78
2023-04-18T05:02:11.629Z,96976.34
2023-04-18T05:04:38.473Z,96988.78
2023-04-18T05:07:05.785Z,96987.22
2023-04-18T05:09:32.330Z,96983.38
2023-04-18T05:12:01.518Z,96991.09
2023-04-18T05:14:28.123Z,96993.41
2023-04-18T05:16:58.106Z,96988.38
2023-04-18T05:19:25.197Z,96990.66
2023-04-18T05:21:54.226Z,96991.50
2023-04-18T05:24:23.108Z,96982.19
2023-04-18T05:26:50.232Z,96984.53
2023-04-18T05:29:16.941Z,96989.91
2023-04-18T05:31:43.596Z,96981.44
2023-04-18T05:34:10.220Z,96988.72
2023-04-18T05:36:39.295Z,96992.25
2023-04-18T05:39:05.855Z,96992.59
2023-04-18T05:41:32.454Z,96991.41
2023-04-18T05:44:05.329Z,97000.34
2023-04-18T05:46:32.993Z,96992.53
2023-04-18T05:49:02.182Z,96992.13
2023-04-18T05:51:31.377Z,96992.56
2023-04-18T05:53:57.944Z,96994.88
2023-04-18T05:56:24.606Z,96996.03
2023-04-18T05:58:53.577Z,96998.72
2023-04-18T06:01:22.417Z,96994.06
2023-04-18T06:03:49.073Z,96994.84
2023-04-18T06:06:15.949Z,97000.63
2023-04-18T06:08:45.095Z,97005.69
2023-04-18T06:11:15.057Z,96998.31
2023-04-18T06:13:43.924Z,97003.72
2023-04-18T06:16:10.624Z,97012.91
2023-04-18T06:18:37.335Z,97009.13
2023-04-18T06:21:04.003Z,97022.25
2023-04-18T06:23:30.528Z,97011.38
2023-04-18T06:25:59.549Z,97012.88
2023-04-18T06:28:26.452Z,97021.75
2023-04-18T06:30:53.019Z,97016.69
2023-04-18T06:33:21.806Z,97017.72
2023-04-18T06:35:51.102Z,97020.06
2023-04-18T06:38:17.709Z,97017.72
2023-04-18T06:40:46.507Z,97014.19
2023-04-18T06:43:13.101Z,97019.09
2023-04-18T06:45:39.739Z,97010.53
2023-04-18T06:48:10.745Z,97015.56
2023-04-18T06:50:39.638Z,97016.72
2023-04-18T06:53:08.673Z,97012.09
2023-04-18T06:55:35.920Z,97009.00
2023-04-18T06:58:05.526Z,97010.31
2023-04-18T07:00:32.101Z,97009.53
2023-04-18T07:02:58.824Z,97012.22
2023-04-18T07:05:25.481Z,97012.28
2023-04-18T07:07:55.097Z,97016.72
2023-04-18T07:10:21.771Z,97011.00
2023-04-18T07:12:50.866Z,97020.47
2023-04-18T07:15:20.038Z,97013.63
2023-04-18T07:17:48.963Z,97016.38
2023-04-18T07:20:18.043Z,97009.66
2023-04-18T07:22:48.080Z,97019.03
2023-04-18T07:25:16.776Z,97018.81
2023-04-18T07:27:45.574Z,97017.81
2023-04-18T07:30:12.490Z,97009.44
2023-04-18T07:32:41.361Z,97012.69
2023-04-18T07:35:15.329Z,97012.53
2023-04-18T07:37:41.944Z,97025.22
2023-04-18T07:40:12.122Z,97028.59
2023-04-18T07:42:43.369Z,97022.41
2023-04-18T07:45:12.803Z,97023.94
2023-04-18T07:47:44.483Z,97029.31
2023-04-18T07:50:14.025Z,97026.25
2023-04-18T07:52:40.537Z,97028.34
2023-04-18T07:55:07.544Z,97034.75
2023-04-18T07:57:34.272Z,97043.63
2023-04-18T08:00:00.955Z,97030.44
2023-04-18T08:02:27.593Z,97035.31
2023-04-18T08:04:56.785Z,97041.56
2023-04-18T08:07:28.222Z,97042.94
2023-04-18T08:09:54.818Z,97047.38
2023-04-18T08:12:23.843Z,97038.84
2023-04-18T08:14:50.407Z,97045.72
2023-04-18T08:17:17.152Z,97040.25
2023-04-18T08:19:45.108Z,97046.28
2023-04-18T08:22:12.035Z,97035.00
2023-04-18T08:24:44.556Z,97040.47
2023-04-18T08:27:17.855Z,97044.59
2023-04-18T08:29:46.589Z,97040.06
2023-04-18T08:32:13.129Z,97045.34
2023-04-18T08:34:43.491Z,97045.09
2023-04-18T08:37:10.232Z,97044.56
2023-04-18T08:39:41.535Z,97048.09
2023-04-18T08:42:10.474Z,97033.34
2023-04-18T08:44:39.578Z,97046.56
2023-04-18T08:47:09.579Z,97037.13
2023-04-18T08:49:36.159Z,97050.31
2023-04-18T08:52:12.360Z,97039.25
2023-04-18T08:54:42.015Z,97043.50
2023-04-18T08:57:16.522Z,97043.78
2023-04-18T08:59:50.397Z,97053.50
2023-04-18T09:02:19.242Z,97057.81
2023-04-18T09:04:49.065Z,97049.44
2023-04-18T09:07:17.401Z,97064.25
2023-04-18T09:09:52.638Z,97060.81
2023-04-18T09:12:22.715Z,97059.84
2023-04-18T09:14:57.511Z,97065.88
2023-04-18T09:17:33.406Z,97062.00
2023-04-18T09:20:01.853Z,97059.47
2023-04-18T09:22:52.178Z,97066.19
2023-04-18T09:25:45.033Z,97071.91
2023-04-18T09:28:33.102Z,97056.09
2023-04-18T09:31:17.467Z,97054.25
2023-04-18T09:33:54.462Z,97067.72
2023-04-18T09:36:24.049Z,97060.69
2023-04-18T09:38:54.456Z,97056.25
2023-04-18T09:41:24.637Z,97066.75
2023-04-18T09:44:15.288Z,97062.28
2023-04-18T09:46:47.372Z,97059.53
2023-04-18T09:49:17.670Z,97059.88
2023-04-18T09:51:50.214Z,97065.00
2023-04-18T09:54:20.738Z,97055.59
2023-04-18T09:56:50.704Z,97058.25
2023-04-18T09:59:42.699Z,97055.91
2023-04-18T10:02:22.569Z,97052.84
2023-04-18T10:04:56.540Z,97058.66
2023-04-18T10:07:28.360Z,97058.09
2023-04-18T10:09:59.673Z,97060.13
2023-04-18T10:12:28.765Z,97059.72
2023-04-18T10:14:55.984Z,97059.97
2023-04-18T10:17:25.539Z,97059.25
2023-04-18T10:20:11.125Z,97055.84
2023-04-18T10:22:40.239Z,97056.34
2023-04-18T10:25:07.435Z,97053.25
2023-04-18T10:27:51.763Z,97054.25
2023-04-18T10:30:18.770Z,97060.59
2023-04-18T10:32:50.521Z,97067.75
2023-04-18T10:35:23.576Z,97057.91
2023-04-18T10:38:01.903Z,97063.88
2023-04-18T10:40:33.788Z,97058.94
2023-04-18T10:43:00.624Z,97064.25
2023-04-18T10:45:32.532Z,97056.44
2023-04-18T10:48:30.017Z,97057.69
2023-04-18T10:51:17.737Z,97060.03
2023-04-18T10:53:50.993Z,97053.06
2023-04-18T10:56:20.638Z,97057.41
2023-04-18T10:58:53.658Z,97047.72
2023-04-18T11:01:31.675Z,97048.63
2023-04-18T11:04:02.453Z,97052.00
2023-04-18T11:06:30.392Z,97046.63
2023-04-18T11:09:13.993Z,97038.53
2023-04-18T11:11:41.577Z,97037.06
2023-04-18T11:14:08.266Z,97035.06
2023-04-18T11:16:37.400Z,97035.09
2023-04-18T11:19:28.269Z,97028.03
2023-04-18T11:22:03.325Z,97028.47
2023-04-18T11:24:29.984Z,97027.22
2023-04-18T11:26:57.032Z,97022.31
2023-04-18T11:29:26.105Z,97039.25
2023-04-18T11:31:55.285Z,97030.16
2023-04-18T11:34:29.911Z,97032.00
2023-04-18T11:36:56.505Z,97037.66
2023-04-18T11:39:25.539Z,97026.34
2023-04-18T11:41:56.859Z,97032.53
2023-04-18T11:44:24.826Z,97023.47
2023-04-18T11:46:55.180Z,97031.13
2023-04-18T11:49:34.398Z,97028.84
2023-04-18T11:52:06.546Z,97031.44
2023-04-18T11:54:45.651Z,97035.06
2023-04-18T11:57:33.002Z,97037.22
2023-04-18T12:00:01.042Z,97039.06
2023-04-18T12:02:45.390Z,97036.09
2023-04-18T12:05:14.986Z,97035.72
2023-04-18T12:07:44.232Z,97032.03
2023-04-18T12:10:22.107Z,97038.69
2023-04-18T12:12:52.500Z,97043.97
2023-04-18T12:15:20.268Z,97041.25
2023-04-18T12:17:49.137Z,97028.22
2023-04-18T12:20:16.149Z,97036.16
2023-04-18T12:22:44.027Z,97037.97
2023-04-18T12:25:29.111Z,97026.97
2023-04-18T12:28:15.256Z,97030.94
2023-04-18T12:30:42.393Z,97036.13
2023-04-18T12:33:13.615Z,97034.03
2023-04-18T12:35:40.452Z,97037.31
2023-04-18T12:38:09.227Z,97039.94
2023-04-18T12:40:39.567Z,97038.59
2023-04-18T12:43:06.874Z,97041.31
2023-04-18T12:45:35.818Z,97038.34
2023-04-18T12:48:04.668Z,97039.31
2023-04-18T12:50:31.371Z,97030.88
2023-04-18T12:53:00.473Z,97025.13
2023-04-18T12:55:29.024Z,97031.53
2023-04-18T12:57:56.082Z,97022.91
2023-04-18T13:00:24.376Z,97025.06
2023-04-18T13:02:52.491Z,97025.44
2023-04-18T13:05:25.099Z,97039.84
2023-04-18T13:08:08.465Z,97030.47
2023-04-18T13:10:39.766Z,97032.84
2023-04-18T13:13:08.498Z,97018.75
2023-04-18T13:15:35.114Z,97021.91
2023-04-18T13:18:05.094Z,97020.41
2023-04-18T13:20:32.539Z,97027.66
2023-04-18T13:22:59.123Z,97009.25
2023-04-18T13:25:26.619Z,97030.28
2023-04-18T13:27:53.380Z,97021.06
2023-04-18T13:30:20.071Z,97015.47
2023-04-18T13:32:47.073Z,97015.34
2023-04-18T13:35:13.826Z,97020.00
2023-04-18T13:37:40.457Z,97018.91
2023-04-18T13:40:08.007Z,97011.72
2023-04-18T13:42:38.478Z,97005.84
2023-04-18T13:45:05.807Z,97007.84
2023-04-18T13:47:32.567Z,97006.66
2023-04-18T13:49:59.413Z,97003.91
2023-04-18T13:52:30.727Z,97002.47
2023-04-18T13:54:57.330Z,97000.91
2023-04-18T13:57:28.500Z,97008.69
2023-04-18T13:59:55.071Z,97011.91
2023-04-18T14:02:24.201Z,97011.16
2023-04-18T14:04:52.152Z,97010.72
2023-04-18T14:07:21.070Z,96997.38
2023-04-18T14:09:48.202Z,96999.19
2023-04-18T14:12:16.919Z,97009.97
2023-04-18T14:14:45.682Z,97007.47
2023-04-18T14:17:14.631Z,97003.53
2023-04-18T14:19:43.532Z,96997.78
2023-04-18T14:22:10.134Z,96998.75
2023-04-18T14:24:36.693Z,97008.03
2023-04-18T14:27:05.546Z,97007.59
2023-04-18T14:29:34.332Z,97003.28
2023-04-18T14:32:00.923Z,96996.00
2023-04-18T14:34:27.482Z,96988.69
2023-04-18T14:36:54.069Z,96985.72
2023-04-18T14:39:22.869Z,96991.25
2023-04-18T14:41:51.681Z,96993.72
2023-04-18T14:44:20.990Z,96993.16
2023-04-18T14:46:49.851Z,97009.63
2023-04-18T14:49:16.616Z,96999.06
2023-04-18T14:51:43.321Z,96998.34
2023-04-18T14:54:09.913Z,96990.81
2023-04-18T14:56:36.508Z,96984.75
2023-04-18T14:59:05.324Z,96993.44
2023-04-18T15:01:31.892Z,96992.84
2023-04-18T15:04:03.669Z,96995.38
2023-04-18T15:06:36.211Z,96985.44
2023-04-18T15:09:02.855Z,96983.63
2023-04-18T15:11:29.429Z,96978.50
2023-04-18T15:13:57.051Z,96986.38
2023-04-18T15:16:23.693Z,96982.91
2023-04-18T15:18:52.515Z,96973.28
2023-04-18T15:21:19.077Z,96975.22
2023-04-18T15:23:47.869Z,96979.72
2023-04-18T15:26:14.661Z,96976.53
2023-04-18T15:28:46.606Z,96977.31
2023-04-18T15:31:14.330Z,96971.81
2023-04-18T15:33:43.056Z,96978.63
2023-04-18T15:36:14.497Z,96977.88
2023-04-18T15:38:44.035Z,96978.69
2023-04-18T15:41:10.670Z,96980.28
2023-04-18T15:43:41.752Z,96979.59
2023-04-18T15:46:09.321Z,96978.19
2023-04-18T15:48:38.258Z,96982.56
2023-04-18T15:51:07.678Z,96987.94
2023-04-18T15:53:39.186Z,96985.97
2023-04-18T15:56:06.428Z,96986.34
2023-04-18T15:58:33.005Z,96986.66
2023-04-18T16:01:02.820Z,96985.22
2023-04-18T16:03:29.551Z,96988.44
2023-04-18T16:05:56.322Z,96986.47
2023-04-18T16:08:25.179Z,96985.78
2023-04-18T16:10:54.265Z,96981.25
2023-04-18T16:13:23.355Z,96980.94
2023-04-18T16:15:50.035Z,96992.78
2023-04-18T16:18:16.644Z,97009.28
2023-04-18T16:20:43.326Z,96991.91
2023-04-18T16:23:09.911Z,96997.22
2023-04-18T16:25:36.482Z,97002.50
2023-04-18T16:28:03.382Z,97000.66
2023-04-18T16:30:30.034Z,96989.34
2023-04-18T16:32:56.999Z,96999.81
2023-04-18T16:35:23.758Z,97003.38
2023-04-18T16:37:53.799Z,96996.31
2023-04-18T16:40:20.602Z,96999.00
2023-04-18T16:42:47.188Z,97009.75
2023-04-18T16:45:13.978Z,97007.16
2023-04-18T16:47:40.715Z,97005.88
2023-04-18T16:50:10.183Z,97009.63
2023-04-18T16:52:39.310Z,96999.72
2023-04-18T16:55:11.426Z,97009.00
2023-04-18T16:57:40.252Z,97006.59
2023-04-18T17:00:08.368Z,97017.06
2023-04-18T17:02:39.681Z,97022.06
2023-04-18T17:05:06.753Z,97017.56
2023-04-18T17:07:35.997Z,97028.94
2023-04-18T17:10:03.031Z,97028.66
2023-04-18T17:12:29.606Z,97023.50
2023-04-18T17:14:58.683Z,97028.66
2023-04-18T17:17:25.353Z,97035.69
2023-04-18T17:19:51.917Z,97032.22
2023-04-18T17:22:18.475Z,97032.88
2023-04-18T17:24:45.011Z,97030.59
2023-04-18T17:27:13.654Z,97037.38
2023-04-18T17:29:40.913Z,97033.00
2023-04-18T17:32:07.780Z,97034.72
2023-04-18T17:34:34.568Z,97040.19
2023-04-18T17:37:03.442Z,97046.53
2023-04-18T17:39:31.257Z,97046.06
2023-04-18T17:42:01.043Z,97048.81
2023-04-18T17:44:30.635Z,97054.63
2023-04-18T17:46:57.173Z,97059.97
2023-04-18T17:49:23.856Z,97056.84
2023-04-18T17:51:52.781Z,97062.25
2023-04-18T17:54:19.339Z,97071.47
2023-04-18T17:56:50.505Z,97071.06
2023-04-18T17:59:19.612Z,97074.06
2023-04-18T18:01:48.812Z,97077.94
2023-04-18T18:04:19.845Z,97077.72
2023-04-18T18:06:56.372Z,97081.63
2023-04-18T18:09:22.958Z,97080.78
2023-04-18T18:11:53.990Z,97080.53
2023-04-18T18:14:22.012Z,97088.47
2023-04-18T18:16:51.280Z,97094.75
2023-04-18T18:19:18.076Z,97092.97
2023-04-18T18:21:47.212Z,97088.31
2023-04-18T18:24:13.990Z,97092.72
2023-04-18T18:26:41.009Z,97094.09
2023-04-18T18:29:11.190Z,97096.81
2023-04-18T18:31:38.822Z,97110.66
2023-04-18T18:34:08.351Z,97108.19
2023-04-18T18:36:34.958Z,97113.38
2023-04-18T18:39:01.576Z,97121.75
2023-04-18T18:41:33.080Z,97118.28
2023-04-18T18:43:59.647Z,97128.97
2023-04-18T18:46:27.279Z,97125.47
2023-04-18T18:48:53.959Z,97124.59
2023-04-18T18:51:23.804Z,97136.22
2023-04-18T18:53:50.605Z,97140.19
2023-04-18T18:56:29.416Z,97143.06
2023-04-18T18:58:58.295Z,97136.59
2023-04-18T19:01:28.747Z,97152.81
2023-04-18T19:03:58.273Z,97152.16
2023-04-18T19:06:28.616Z,97153.47
2023-04-18T19:08:57.513Z,97158.63
2023-04-18T19:11:27.868Z,97163.50
2023-04-18T19:13:56.714Z,97175.75
2023-04-18T19:16:23.363Z,97160.00
2023-04-18T19:18:54.826Z,97167.75
2023-04-18T19:21:21.452Z,97174.13
2023-04-18T19:23:48.068Z,97162.72
2023-04-18T19:26:19.365Z,97173.78
2023-04-18T19:28:46.051Z,97163.13
2023-04-18T19:31:12.667Z,97166.59
2023-04-18T19:33:41.829Z,97171.66
2023-04-18T19:36:11.438Z,97162.72
2023-04-18T19:38:37.980Z,97168.19
2023-04-18T19:41:06.864Z,97170.75
2023-04-18T19:43:40.270Z,97165.03
2023-04-18T19:46:06.850Z,97173.47
2023-04-18T19:48:33.633Z,97183.22
2023-04-18T19:51:04.228Z,97176.66
2023-04-18T19:53:31.060Z,97181.41
2023-04-18T19:55:57.781Z,97174.75
2023-04-18T19:58:46.838Z,97181.41
2023-04-18T20:01:14.608Z,97173.34
2023-04-18T20:03:43.526Z,97176.91
2023-04-18T20:06:10.863Z,97193.19
2023-04-18T20:08:41.521Z,97187.69
2023-04-18T20:11:11.540Z,97194.06
2023-04-18T20:13:41.337Z,97195.31
2023-04-18T20:16:08.999Z,97195.78
2023-04-18T20:18:40.207Z,97198.97
2023-04-18T20:21:10.841Z,97198.59
2023-04-18T20:23:42.157Z,97197.56
2023-04-18T20:26:12.076Z,97202.94
2023-04-18T20:28:38.696Z,97200.31
2023-04-18T20:31:07.834Z,97199.78
2023-04-18T20:33:36.546Z,97204.59
2023-04-18T20:36:03.597Z,97201.44
2023-04-18T20:38:32.709Z,97205.38
2023-04-18T20:41:00.814Z,97200.84
2023-04-18T20:43:29.717Z,97207.03
2023-04-18T20:45:58.686Z,97207.88
2023-04-18T20:48:25.566Z,97207.63
2023-04-18T20:50:52.156Z,97211.44
2023-04-18T20:53:21.126Z,97209.13
2023-04-18T20:55:48.577Z,97208.72
2023-04-18T20:58:15.205Z,97211.16
2023-04-18T21:00:44.876Z,97204.22
2023-04-18T21:03:14.914Z,97213.91
2023-04-18T21:05:43.287Z,97216.22
2023-04-18T21:08:14.650Z,97210.84
2023-04-18T21:10:41.237Z,97215.09
2023-04-18T21:13:09.241Z,97216.75
2023-04-18T21:15:36.037Z,97218.66
2023-04-18T21:18:02.712Z,97219.84
2023-04-18T21:20:29.312Z,97221.91
2023-04-18T21:22:55.896Z,97223.50
2023-04-18T21:25:24.956Z,97220.25
2023-04-18T21:27:51.862Z,97223.00
2023-04-18T21:30:21.246Z,97228.81
2023-04-18T21:32:51.547Z,97223.91
2023-04-18T21:35:22.593Z,97219.63
2023-04-18T21:37:50.918Z,97227.00
2023-04-18T21:40:17.573Z,97223.19
2023-04-18T21:42:48.154Z,97223.25
2023-04-18T21:45:17.427Z,97232.53
2023-04-18T21:47:44.044Z,97221.66
2023-04-18T21:50:15.291Z,97230.56
2023-04-18T21:52:41.909Z,97235.22
2023-04-18T21:55:13.410Z,97229.06
2023-04-18T21:57:42.230Z,97229.16
2023-04-18T22:00:11.201Z,97221.50
2023-04-18T22:02:40.895Z,97229.22
2023-04-18T22:05:13.952Z,97222.22
2023-04-18T22:07:54.471Z,97228.13
2023-04-18T22:10:25.054Z,97218.06
2023-04-18T22:12:54.093Z,97233.81
2023-04-18T22:15:20.729Z,97229.34
2023-04-18T22:17:52.078Z,97228.13
2023-04-18T22:20:21.642Z,97231.31
2023-04-18T22:22:48.295Z,97232.16
2023-04-18T22:25:15.026Z,97237.59
2023-04-18T22:27:45.065Z,97236.38
2023-04-18T22:30:12.400Z,97233.34
2023-04-18T22:32:41.880Z,97231.44
2023-04-18T22:35:08.999Z,97234.94
2023-04-18T22:37:38.275Z,97230.34
2023-04-18T22:40:05.544Z,97229.22
2023-04-18T22:42:35.645Z,97235.78
2023-04-18T22:45:09.920Z,97229.97
2023-04-18T22:47:38.725Z,97233.50
2023-04-18T22:50:06.289Z,97237.03
2023-04-18T22:52:35.385Z,97237.03
2023-04-18T22:55:02.752Z,97238.09
2023-04-18T22:57:29.391Z,97239.72
2023-04-18T22:59:56.473Z,97241.28
2023-04-18T23:02:25.236Z,97242.78
2023-04-18T23:04:53.384Z,97247.41
2023-04-18T23:07:20.062Z,97239.28
2023-04-18T23:09:46.617Z,97242.38
2023-04-18T23:12:15.706Z,97242.75
2023-04-18T23:14:42.292Z,97247.03
2023-04-18T23:17:08.865Z,97250.09
2023-04-18T23:19:37.609Z,97249.38
2023-04-18T23:22:04.216Z,97255.19
2023-04-18T23:24:31.475Z,97247.47
2023-04-18T23:27:01.487Z,97249.41
2023-04-18T23:29:28.141Z,97245.94
2023-04-18T23:31:54.691Z,97247.09
2023-04-18T23:34:21.304Z,97256.00
2023-04-18T23:36:50.218Z,97239.34
2023-04-18T23:39:18.550Z,97237.03
2023-04-18T23:41:47.836Z,97239.72
2023-04-18T23:44:16.830Z,97244.75
2023-04-18T23:46:43.490Z,97249.41
2023-04-18T23:49:12.296Z,97235.50
2023-04-18T23:51:38.815Z,97250.97
2023-04-18T23:54:05.655Z,97247.50
2023-04-18T23:56:34.405Z,97251.34
2023-04-18T23:59:00.973Z,97250.56
